sensor_id;sensor_type;location;lat;lon;timestamp;temperature;humidity
1996;DHT22;38556;47.068;15.408;2022-07-01T00:03:00;27.00;99.90
1996;DHT22;38556;47.068;15.408;2022-07-01T00:05:29;27.00;99.90
1996;DHT22;38556;47.068;15.408;2022-07-01T00:07:56;27.00;99.90
1996;DHT22;38556;47.068;15.408;2022-07-01T00:10:23;27.00;99.90
1996;DHT22;38556;47.068;15.408;2022-07-01T00:22:43;27.10;99.90
1996;DHT22;38556;47.068;15.408;2022-07-01T00:25:10;27.00;99.90
1996;DHT22;38556;47.068;15.408;2022-07-01T00:30:07;27.10;99.90
1996;DHT22;38556;47.068;15.408;2022-07-01T00:32:34;27.10;99.90
1996;DHT22;38556;47.068;15.408;2022-07-01T00:37:29;27.00;99.90
1996;DHT22;38556;47.068;15.408;2022-07-01T00:39:58;27.00;99.90
1996;DHT22;38556;47.068;15.408;2022-07-01T00:42:25;26.90;99.90
1996;DHT22;38556;47.068;15.408;2022-07-01T00:44:53;27.00;99.90
1996;DHT22;38556;47.068;15.408;2022-07-01T00:47:20;27.00;99.90
1996;DHT22;38556;47.068;15.408;2022-07-01T00:52:16;27.00;99.90
1996;DHT22;38556;47.068;15.408;2022-07-01T00:54:43;27.00;99.90
1996;DHT22;38556;47.068;15.408;2022-07-01T00:57:12;27.00;99.90
1996;DHT22;38556;47.068;15.408;2022-07-01T00:59:40;27.00;99.90
1996;DHT22;38556;47.068;15.408;2022-07-01T01:02:08;27.00;99.90
1996;DHT22;38556;47.068;15.408;2022-07-01T01:04:36;27.00;99.90
1996;DHT22;38556;47.068;15.408;2022-07-01T01:07:03;26.90;99.90
1996;DHT22;38556;47.068;15.408;2022-07-01T01:09:31;26.90;99.90
1996;DHT22;38556;47.068;15.408;2022-07-01T01:14:27;26.90;99.90
1996;DHT22;38556;47.068;15.408;2022-07-01T01:19:22;26.90;99.90
1996;DHT22;38556;47.068;15.408;2022-07-01T01:24:18;26.40;99.90
1996;DHT22;38556;47.068;15.408;2022-07-01T01:26:46;26.50;99.90
1996;DHT22;38556;47.068;15.408;2022-07-01T01:29:13;26.50;99.90
1996;DHT22;38556;47.068;15.408;2022-07-01T01:34:08;26.60;99.90
1996;DHT22;38556;47.068;15.408;2022-07-01T01:36:36;26.60;99.90
1996;DHT22;38556;47.068;15.408;2022-07-01T01:39:04;26.60;99.90
1996;DHT22;38556;47.068;15.408;2022-07-01T01:41:35;26.70;99.90
1996;DHT22;38556;47.068;15.408;2022-07-01T01:44:02;26.70;99.90
1996;DHT22;38556;47.068;15.408;2022-07-01T01:46:30;26.70;99.90
1996;DHT22;38556;47.068;15.408;2022-07-01T01:48:58;26.60;99.90
1996;DHT22;38556;47.068;15.408;2022-07-01T01:51:25;26.70;99.90
1996;DHT22;38556;47.068;15.408;2022-07-01T01:53:53;26.70;99.90
1996;DHT22;38556;47.068;15.408;2022-07-01T01:56:21;26.70;99.90
1996;DHT22;38556;47.068;15.408;2022-07-01T01:58:48;26.60;99.90
1996;DHT22;38556;47.068;15.408;2022-07-01T02:01:17;26.70;99.90
1996;DHT22;38556;47.068;15.408;2022-07-01T02:03:45;26.70;99.90
1996;DHT22;38556;47.068;15.408;2022-07-01T02:06:14;26.70;99.90
1996;DHT22;38556;47.068;15.408;2022-07-01T02:08:42;26.60;99.90
1996;DHT22;38556;47.068;15.408;2022-07-01T02:11:09;26.50;99.90
1996;DHT22;38556;47.068;15.408;2022-07-01T02:13:39;26.50;99.90
1996;DHT22;38556;47.068;15.408;2022-07-01T02:16:06;26.50;99.90
1996;DHT22;38556;47.068;15.408;2022-07-01T02:18:33;26.40;99.90
1996;DHT22;38556;47.068;15.408;2022-07-01T02:21:01;26.40;99.90
1996;DHT22;38556;47.068;15.408;2022-07-01T02:23:28;26.40;99.90
1996;DHT22;38556;47.068;15.408;2022-07-01T02:25:55;26.40;99.90
1996;DHT22;38556;47.068;15.408;2022-07-01T02:28:22;26.40;99.90
1996;DHT22;38556;47.068;15.408;2022-07-01T02:30:51;26.40;99.90
1996;DHT22;38556;47.068;15.408;2022-07-01T02:33:18;26.50;99.90
1996;DHT22;38556;47.068;15.408;2022-07-01T02:35:45;26.40;99.90
1996;DHT22;38556;47.068;15.408;2022-07-01T02:38:13;26.40;99.90
1996;DHT22;38556;47.068;15.408;2022-07-01T02:43:08;26.40;99.90
1996;DHT22;38556;47.068;15.408;2022-07-01T02:45:35;26.40;99.90
1996;DHT22;38556;47.068;15.408;2022-07-01T02:48:04;26.30;99.90
1996;DHT22;38556;47.068;15.408;2022-07-01T02:50:32;26.30;99.90
1996;DHT22;38556;47.068;15.408;2022-07-01T02:52:59;26.30;99.90
1996;DHT22;38556;47.068;15.408;2022-07-01T02:55:26;26.30;99.90
1996;DHT22;38556;47.068;15.408;2022-07-01T02:57:55;26.30;99.90
1996;DHT22;38556;47.068;15.408;2022-07-01T03:00:23;26.30;99.90
1996;DHT22;38556;47.068;15.408;2022-07-01T03:02:51;26.30;99.90
1996;DHT22;38556;47.068;15.408;2022-07-01T03:05:20;26.30;99.90
1996;DHT22;38556;47.068;15.408;2022-07-01T03:07:47;26.20;99.90
1996;DHT22;38556;47.068;15.408;2022-07-01T03:10:14;26.30;99.90
1996;DHT22;38556;47.068;15.408;2022-07-01T03:12:42;26.20;99.90
1996;DHT22;38556;47.068;15.408;2022-07-01T03:15:10;26.20;99.90
1996;DHT22;38556;47.068;15.408;2022-07-01T03:17:40;26.20;99.90
1996;DHT22;38556;47.068;15.408;2022-07-01T03:20:09;26.20;99.90
1996;DHT22;38556;47.068;15.408;2022-07-01T03:22:39;26.20;99.90
1996;DHT22;38556;47.068;15.408;2022-07-01T03:25:08;26.20;99.90
1996;DHT22;38556;47.068;15.408;2022-07-01T03:27:35;26.20;99.90
1996;DHT22;38556;47.068;15.408;2022-07-01T03:30:05;26.20;99.90
1996;DHT22;38556;47.068;15.408;2022-07-01T03:32:33;26.30;99.90
1996;DHT22;38556;47.068;15.408;2022-07-01T03:35:01;26.30;99.90
1996;DHT22;38556;47.068;15.408;2022-07-01T03:37:50;26.30;99.90
1996;DHT22;38556;47.068;15.408;2022-07-01T03:40:17;26.30;99.90
1996;DHT22;38556;47.068;15.408;2022-07-01T03:42:44;26.30;99.90
1996;DHT22;38556;47.068;15.408;2022-07-01T03:45:11;26.30;99.90
1996;DHT22;38556;47.068;15.408;2022-07-01T03:47:45;26.30;99.90
1996;DHT22;38556;47.068;15.408;2022-07-01T03:50:12;26.30;99.90
1996;DHT22;38556;47.068;15.408;2022-07-01T03:55:09;26.40;99.90
1996;DHT22;38556;47.068;15.408;2022-07-01T03:57:36;26.40;99.90
1996;DHT22;38556;47.068;15.408;2022-07-01T04:00:04;26.30;99.90
1996;DHT22;38556;47.068;15.408;2022-07-01T04:07:27;26.40;99.90
1996;DHT22;38556;47.068;15.408;2022-07-01T04:09:55;26.40;99.90
1996;DHT22;38556;47.068;15.408;2022-07-01T04:12:23;26.40;99.90
1996;DHT22;38556;47.068;15.408;2022-07-01T04:14:51;26.40;99.90
1996;DHT22;38556;47.068;15.408;2022-07-01T04:17:18;26.50;99.90
1996;DHT22;38556;47.068;15.408;2022-07-01T04:19:45;26.50;99.90
1996;DHT22;38556;47.068;15.408;2022-07-01T04:22:13;26.50;99.90
1996;DHT22;38556;47.068;15.408;2022-07-01T04:24:57;26.50;99.90
1996;DHT22;38556;47.068;15.408;2022-07-01T04:27:26;26.60;99.90
1996;DHT22;38556;47.068;15.408;2022-07-01T04:29:53;26.60;99.90
1996;DHT22;38556;47.068;15.408;2022-07-01T04:32:21;26.70;99.90
1996;DHT22;38556;47.068;15.408;2022-07-01T04:34:48;26.70;99.90
1996;DHT22;38556;47.068;15.408;2022-07-01T04:37:16;26.70;99.90
1996;DHT22;38556;47.068;15.408;2022-07-01T04:39:43;26.70;99.90
1996;DHT22;38556;47.068;15.408;2022-07-01T04:42:10;26.80;99.90
1996;DHT22;38556;47.068;15.408;2022-07-01T04:44:41;26.80;99.90
1996;DHT22;38556;47.068;15.408;2022-07-01T04:47:09;26.90;99.90
1996;DHT22;38556;47.068;15.408;2022-07-01T04:49:36;26.90;99.90
1996;DHT22;38556;47.068;15.408;2022-07-01T04:54:31;26.90;99.90
1996;DHT22;38556;47.068;15.408;2022-07-01T04:56:58;27.00;99.90
1996;DHT22;38556;47.068;15.408;2022-07-01T04:59:26;27.00;99.90
1996;DHT22;38556;47.068;15.408;2022-07-01T05:01:54;27.00;99.90
1996;DHT22;38556;47.068;15.408;2022-07-01T05:04:22;27.10;99.90
1996;DHT22;38556;47.068;15.408;2022-07-01T05:09:19;27.10;99.90
1996;DHT22;38556;47.068;15.408;2022-07-01T05:11:46;27.20;99.90
1996;DHT22;38556;47.068;15.408;2022-07-01T05:14:14;27.20;99.90
1996;DHT22;38556;47.068;15.408;2022-07-01T05:19:10;27.30;99.90
1996;DHT22;38556;47.068;15.408;2022-07-01T05:31:45;27.50;99.90
1996;DHT22;38556;47.068;15.408;2022-07-01T05:34:14;27.60;99.90
1996;DHT22;38556;47.068;15.408;2022-07-01T05:41:37;27.70;99.90
1996;DHT22;38556;47.068;15.408;2022-07-01T05:44:05;27.80;99.90
1996;DHT22;38556;47.068;15.408;2022-07-01T05:46:32;27.80;99.90
1996;DHT22;38556;47.068;15.408;2022-07-01T05:58:52;28.10;99.90
1996;DHT22;38556;47.068;15.408;2022-07-01T06:03:47;28.20;99.90
1996;DHT22;38556;47.068;15.408;2022-07-01T06:08:45;28.00;99.90
1996;DHT22;38556;47.068;15.408;2022-07-01T06:11:12;28.00;99.90
1996;DHT22;38556;47.068;15.408;2022-07-01T06:16:08;28.00;99.90
1996;DHT22;38556;47.068;15.408;2022-07-01T06:18:35;28.00;99.90
1996;DHT22;38556;47.068;15.408;2022-07-01T06:21:03;28.10;99.90
1996;DHT22;38556;47.068;15.408;2022-07-01T06:23:30;28.20;99.90
1996;DHT22;38556;47.068;15.408;2022-07-01T06:25:59;28.20;99.90
1996;DHT22;38556;47.068;15.408;2022-07-01T06:28:26;28.30;99.90
1996;DHT22;38556;47.068;15.408;2022-07-01T06:30:56;28.00;99.90
1996;DHT22;38556;47.068;15.408;2022-07-01T06:33:24;27.60;99.90
1996;DHT22;38556;47.068;15.408;2022-07-01T06:35:52;27.60;99.90
1996;DHT22;38556;47.068;15.408;2022-07-01T06:38:20;27.90;99.90
1996;DHT22;38556;47.068;15.408;2022-07-01T06:43:37;28.10;99.90
1996;DHT22;38556;47.068;15.408;2022-07-01T06:46:04;28.20;99.90
1996;DHT22;38556;47.068;15.408;2022-07-01T06:48:32;28.30;99.90
1996;DHT22;38556;47.068;15.408;2022-07-01T06:53:27;28.40;99.90
1996;DHT22;38556;47.068;15.408;2022-07-01T06:55:54;28.50;99.90
1996;DHT22;38556;47.068;15.408;2022-07-01T07:00:51;28.50;99.90
1996;DHT22;38556;47.068;15.408;2022-07-01T07:03:18;28.60;99.90
1996;DHT22;38556;47.068;15.408;2022-07-01T07:05:45;28.70;99.90
1996;DHT22;38556;47.068;15.408;2022-07-01T07:08:13;28.80;99.90
1996;DHT22;38556;47.068;15.408;2022-07-01T07:15:35;28.80;99.90
1996;DHT22;38556;47.068;15.408;2022-07-01T07:18:08;28.80;99.90
1996;DHT22;38556;47.068;15.408;2022-07-01T07:20:36;28.80;99.90
1996;DHT22;38556;47.068;15.408;2022-07-01T07:25:31;28.90;99.90
1996;DHT22;38556;47.068;15.408;2022-07-01T07:30:26;28.80;99.90
1996;DHT22;38556;47.068;15.408;2022-07-01T07:32:53;28.90;99.90
1996;DHT22;38556;47.068;15.408;2022-07-01T07:35:22;29.00;99.90
1996;DHT22;38556;47.068;15.408;2022-07-01T07:37:50;29.10;99.90
1996;DHT22;38556;47.068;15.408;2022-07-01T07:40:17;29.10;99.90
1996;DHT22;38556;47.068;15.408;2022-07-01T07:42:46;29.20;99.90
1996;DHT22;38556;47.068;15.408;2022-07-01T07:45:13;29.30;99.90
1996;DHT22;38556;47.068;15.408;2022-07-01T07:47:42;29.10;99.90
1996;DHT22;38556;47.068;15.408;2022-07-01T07:50:10;29.20;99.90
1996;DHT22;38556;47.068;15.408;2022-07-01T07:52:39;29.30;99.90
1996;DHT22;38556;47.068;15.408;2022-07-01T07:55:08;29.40;99.90
1996;DHT22;38556;47.068;15.408;2022-07-01T08:00:06;29.40;99.90
1996;DHT22;38556;47.068;15.408;2022-07-01T08:02:34;29.30;99.90
1996;DHT22;38556;47.068;15.408;2022-07-01T08:07:29;24.40;99.90
1996;DHT22;38556;47.068;15.408;2022-07-01T08:09:58;29.40;99.90
1996;DHT22;38556;47.068;15.408;2022-07-01T08:17:21;29.30;99.90
1996;DHT22;38556;47.068;15.408;2022-07-01T08:19:48;29.50;99.90
1996;DHT22;38556;47.068;15.408;2022-07-01T08:22:15;29.50;99.90
1996;DHT22;38556;47.068;15.408;2022-07-01T08:27:12;29.60;99.90
1996;DHT22;38556;47.068;15.408;2022-07-01T08:29:39;29.50;99.90
1996;DHT22;38556;47.068;15.408;2022-07-01T08:32:07;29.60;99.90
1996;DHT22;38556;47.068;15.408;2022-07-01T08:34:35;29.60;99.90
1996;DHT22;38556;47.068;15.408;2022-07-01T08:37:03;29.60;99.90
1996;DHT22;38556;47.068;15.408;2022-07-01T08:39:31;29.80;99.90
1996;DHT22;38556;47.068;15.408;2022-07-01T08:44:27;29.70;99.90
1996;DHT22;38556;47.068;15.408;2022-07-01T08:46:54;29.50;99.90
1996;DHT22;38556;47.068;15.408;2022-07-01T08:49:23;29.70;99.90
1996;DHT22;38556;47.068;15.408;2022-07-01T08:56:45;29.50;99.90
1996;DHT22;38556;47.068;15.408;2022-07-01T08:59:13;29.50;99.90
1996;DHT22;38556;47.068;15.408;2022-07-01T09:01:56;29.50;99.90
1996;DHT22;38556;47.068;15.408;2022-07-01T09:04:24;29.60;99.90
1996;DHT22;38556;47.068;15.408;2022-07-01T09:06:53;29.70;99.90
1996;DHT22;38556;47.068;15.408;2022-07-01T09:09:24;29.90;99.90
1996;DHT22;38556;47.068;15.408;2022-07-01T09:11:52;29.90;99.90
1996;DHT22;38556;47.068;15.408;2022-07-01T09:14:21;30.00;99.90
1996;DHT22;38556;47.068;15.408;2022-07-01T09:16:50;30.00;99.90
1996;DHT22;38556;47.068;15.408;2022-07-01T09:19:20;30.10;99.90
1996;DHT22;38556;47.068;15.408;2022-07-01T09:21:48;30.10;99.90
1996;DHT22;38556;47.068;15.408;2022-07-01T09:26:56;30.00;99.90
1996;DHT22;38556;47.068;15.408;2022-07-01T09:29:29;29.90;99.90
1996;DHT22;38556;47.068;15.408;2022-07-01T09:34:26;30.00;99.90
1996;DHT22;38556;47.068;15.408;2022-07-01T09:36:54;30.20;99.90
1996;DHT22;38556;47.068;15.408;2022-07-01T09:39:22;30.30;99.90
1996;DHT22;38556;47.068;15.408;2022-07-01T09:44:17;30.40;99.90
1996;DHT22;38556;47.068;15.408;2022-07-01T09:46:52;30.40;99.90
1996;DHT22;38556;47.068;15.408;2022-07-01T09:51:50;30.40;99.90
1996;DHT22;38556;47.068;15.408;2022-07-01T09:54:17;30.60;99.90
1996;DHT22;38556;47.068;15.408;2022-07-01T09:56:45;30.60;99.90
1996;DHT22;38556;47.068;15.408;2022-07-01T09:59:13;30.60;99.90
1996;DHT22;38556;47.068;15.408;2022-07-01T10:01:40;30.60;99.90
1996;DHT22;38556;47.068;15.408;2022-07-01T10:04:09;30.70;99.90
1996;DHT22;38556;47.068;15.408;2022-07-01T10:06:48;30.90;99.90
1996;DHT22;38556;47.068;15.408;2022-07-01T10:09:38;31.00;99.90
1996;DHT22;38556;47.068;15.408;2022-07-01T10:12:36;31.20;99.90
1996;DHT22;38556;47.068;15.408;2022-07-01T10:15:05;31.30;99.90
1996;DHT22;38556;47.068;15.408;2022-07-01T10:17:35;31.10;99.90
1996;DHT22;38556;47.068;15.408;2022-07-01T10:20:09;30.90;99.90
1996;DHT22;38556;47.068;15.408;2022-07-01T10:22:38;31.00;99.90
1996;DHT22;38556;47.068;15.408;2022-07-01T10:28:12;31.00;99.90
1996;DHT22;38556;47.068;15.408;2022-07-01T10:30:49;31.20;99.90
1996;DHT22;38556;47.068;15.408;2022-07-01T10:33:34;31.10;99.90
1996;DHT22;38556;47.068;15.408;2022-07-01T10:36:17;31.00;99.90
1996;DHT22;38556;47.068;15.408;2022-07-01T10:39:07;31.10;99.90
1996;DHT22;38556;47.068;15.408;2022-07-01T10:41:36;31.20;99.90
1996;DHT22;38556;47.068;15.408;2022-07-01T10:44:07;31.30;99.90
1996;DHT22;38556;47.068;15.408;2022-07-01T10:46:39;31.40;99.90
1996;DHT22;38556;47.068;15.408;2022-07-01T10:49:11;31.40;99.90
1996;DHT22;38556;47.068;15.408;2022-07-01T10:51:46;31.40;99.90
1996;DHT22;38556;47.068;15.408;2022-07-01T10:57:34;31.30;99.90
1996;DHT22;38556;47.068;15.408;2022-07-01T11:00:27;31.20;99.90
1996;DHT22;38556;47.068;15.408;2022-07-01T11:05:34;31.40;99.90
1996;DHT22;38556;47.068;15.408;2022-07-01T11:08:04;31.50;99.90
1996;DHT22;38556;47.068;15.408;2022-07-01T11:10:32;31.70;99.90
1996;DHT22;38556;47.068;15.408;2022-07-01T11:13:00;31.80;99.80
1996;DHT22;38556;47.068;15.408;2022-07-01T11:15:30;31.90;99.10
1996;DHT22;38556;47.068;15.408;2022-07-01T11:17:59;31.80;98.40
1996;DHT22;38556;47.068;15.408;2022-07-01T11:20:29;31.90;98.90
1996;DHT22;38556;47.068;15.408;2022-07-01T11:22:56;31.90;97.20
1996;DHT22;38556;47.068;15.408;2022-07-01T11:25:24;31.90;96.90
1996;DHT22;38556;47.068;15.408;2022-07-01T11:27:52;31.90;96.80
1996;DHT22;38556;47.068;15.408;2022-07-01T11:30:21;31.80;95.70
1996;DHT22;38556;47.068;15.408;2022-07-01T11:32:52;31.80;94.00
1996;DHT22;38556;47.068;15.408;2022-07-01T11:35:21;31.90;94.00
1996;DHT22;38556;47.068;15.408;2022-07-01T11:38:10;32.00;94.10
1996;DHT22;38556;47.068;15.408;2022-07-01T11:40:57;32.30;93.30
1996;DHT22;38556;47.068;15.408;2022-07-01T11:45:54;32.40;92.10
1996;DHT22;38556;47.068;15.408;2022-07-01T11:48:37;32.40;92.80
1996;DHT22;38556;47.068;15.408;2022-07-01T11:51:08;32.30;93.00
1996;DHT22;38556;47.068;15.408;2022-07-01T11:53:36;32.40;92.50
1996;DHT22;38556;47.068;15.408;2022-07-01T11:56:04;32.40;92.20
1996;DHT22;38556;47.068;15.408;2022-07-01T11:58:45;32.60;92.60
1996;DHT22;38556;47.068;15.408;2022-07-01T12:01:25;32.50;93.00
1996;DHT22;38556;47.068;15.408;2022-07-01T12:03:55;32.50;92.00
1996;DHT22;38556;47.068;15.408;2022-07-01T12:06:24;32.50;91.90
1996;DHT22;38556;47.068;15.408;2022-07-01T12:08:53;32.50;91.90
1996;DHT22;38556;47.068;15.408;2022-07-01T12:11:24;32.70;91.80
1996;DHT22;38556;47.068;15.408;2022-07-01T12:13:52;32.60;90.70
1996;DHT22;38556;47.068;15.408;2022-07-01T12:16:20;32.60;90.40
1996;DHT22;38556;47.068;15.408;2022-07-01T12:18:52;32.70;90.10
1996;DHT22;38556;47.068;15.408;2022-07-01T12:21:21;32.80;90.00
1996;DHT22;38556;47.068;15.408;2022-07-01T12:24:11;32.90;87.60
1996;DHT22;38556;47.068;15.408;2022-07-01T12:26:51;33.00;88.80
1996;DHT22;38556;47.068;15.408;2022-07-01T12:29:19;32.50;85.10
1996;DHT22;38556;47.068;15.408;2022-07-01T12:31:58;36.10;90.00
1996;DHT22;38556;47.068;15.408;2022-07-01T12:34:37;33.00;87.60
1996;DHT22;38556;47.068;15.408;2022-07-01T12:37:10;33.00;88.20
1996;DHT22;38556;47.068;15.408;2022-07-01T12:39:44;32.90;89.20
1996;DHT22;38556;47.068;15.408;2022-07-01T12:42:22;33.00;90.00
1996;DHT22;38556;47.068;15.408;2022-07-01T12:44:50;33.10;90.70
1996;DHT22;38556;47.068;15.408;2022-07-01T12:47:19;33.30;90.40
1996;DHT22;38556;47.068;15.408;2022-07-01T12:49:46;33.30;90.30
1996;DHT22;38556;47.068;15.408;2022-07-01T12:52:25;33.50;90.60
1996;DHT22;38556;47.068;15.408;2022-07-01T12:54:56;33.60;89.50
1996;DHT22;38556;47.068;15.408;2022-07-01T12:57:30;33.60;89.00
1996;DHT22;38556;47.068;15.408;2022-07-01T12:59:58;33.70;89.30
1996;DHT22;38556;47.068;15.408;2022-07-01T13:02:25;33.80;88.80
1996;DHT22;38556;47.068;15.408;2022-07-01T13:04:53;33.80;87.90
1996;DHT22;38556;47.068;15.408;2022-07-01T13:09:49;33.60;90.60
1996;DHT22;38556;47.068;15.408;2022-07-01T13:12:16;33.90;90.10
1996;DHT22;38556;47.068;15.408;2022-07-01T13:14:44;33.80;90.60
1996;DHT22;38556;47.068;15.408;2022-07-01T13:24:33;34.70;89.40
1996;DHT22;38556;47.068;15.408;2022-07-01T13:27:03;34.90;88.40
1996;DHT22;38556;47.068;15.408;2022-07-01T13:29:30;35.10;88.40
1996;DHT22;38556;47.068;15.408;2022-07-01T13:34:26;35.00;88.60
1996;DHT22;38556;47.068;15.408;2022-07-01T13:36:53;35.20;89.30
1996;DHT22;38556;47.068;15.408;2022-07-01T13:39:21;35.10;88.50
1996;DHT22;38556;47.068;15.408;2022-07-01T13:41:48;35.20;86.40
1996;DHT22;38556;47.068;15.408;2022-07-01T13:44:16;35.30;88.20
1996;DHT22;38556;47.068;15.408;2022-07-01T13:46:44;35.40;88.10
1996;DHT22;38556;47.068;15.408;2022-07-01T13:49:11;35.40;88.80
1996;DHT22;38556;47.068;15.408;2022-07-01T13:51:39;35.10;86.80
1996;DHT22;38556;47.068;15.408;2022-07-01T13:56:34;35.20;86.40
1996;DHT22;38556;47.068;15.408;2022-07-01T13:59:01;35.20;87.10
1996;DHT22;38556;47.068;15.408;2022-07-01T14:01:30;35.50;86.70
1996;DHT22;38556;47.068;15.408;2022-07-01T14:04:00;35.60;87.00
1996;DHT22;38556;47.068;15.408;2022-07-01T14:06:27;35.40;86.40
1996;DHT22;38556;47.068;15.408;2022-07-01T14:08:54;35.40;86.40
1996;DHT22;38556;47.068;15.408;2022-07-01T14:13:49;35.50;87.30
1996;DHT22;38556;47.068;15.408;2022-07-01T14:16:16;35.60;85.90
1996;DHT22;38556;47.068;15.408;2022-07-01T14:18:45;35.70;86.50
1996;DHT22;38556;47.068;15.408;2022-07-01T14:21:13;35.80;85.50
1996;DHT22;38556;47.068;15.408;2022-07-01T14:23:40;35.80;84.90
1996;DHT22;38556;47.068;15.408;2022-07-01T14:26:07;35.80;85.50
1996;DHT22;38556;47.068;15.408;2022-07-01T14:28:34;36.00;84.60
1996;DHT22;38556;47.068;15.408;2022-07-01T14:31:01;36.00;85.30
1996;DHT22;38556;47.068;15.408;2022-07-01T14:33:29;36.30;81.80
1996;DHT22;38556;47.068;15.408;2022-07-01T14:35:58;36.00;80.10
1996;DHT22;38556;47.068;15.408;2022-07-01T14:38:25;36.10;81.00
1996;DHT22;38556;47.068;15.408;2022-07-01T14:40:53;36.20;81.00
1996;DHT22;38556;47.068;15.408;2022-07-01T14:43:20;36.50;80.20
1996;DHT22;38556;47.068;15.408;2022-07-01T14:45:48;36.30;77.90
1996;DHT22;38556;47.068;15.408;2022-07-01T14:48:15;36.10;77.10
1996;DHT22;38556;47.068;15.408;2022-07-01T14:50:42;35.70;77.20
1996;DHT22;38556;47.068;15.408;2022-07-01T14:53:11;35.70;77.90
1996;DHT22;38556;47.068;15.408;2022-07-01T14:55:38;35.50;76.80
1996;DHT22;38556;47.068;15.408;2022-07-01T15:00:33;34.80;78.70
1996;DHT22;38556;47.068;15.408;2022-07-01T15:03:03;34.80;78.40
1996;DHT22;38556;47.068;15.408;2022-07-01T15:05:32;34.90;79.80
1996;DHT22;38556;47.068;15.408;2022-07-01T15:07:59;34.70;79.50
1996;DHT22;38556;47.068;15.408;2022-07-01T15:10:28;34.70;81.30
1996;DHT22;38556;47.068;15.408;2022-07-01T15:12:55;34.50;82.00
1996;DHT22;38556;47.068;15.408;2022-07-01T15:15:22;34.40;82.80
1996;DHT22;38556;47.068;15.408;2022-07-01T15:17:49;34.30;83.50
1996;DHT22;38556;47.068;15.408;2022-07-01T15:20:17;34.50;84.10
1996;DHT22;38556;47.068;15.408;2022-07-01T15:22:44;34.40;84.30
1996;DHT22;38556;47.068;15.408;2022-07-01T15:25:11;34.30;84.50
1996;DHT22;38556;47.068;15.408;2022-07-01T15:27:41;34.30;85.00
1996;DHT22;38556;47.068;15.408;2022-07-01T15:30:09;34.40;85.30
1996;DHT22;38556;47.068;15.408;2022-07-01T15:32:36;34.40;86.90
1996;DHT22;38556;47.068;15.408;2022-07-01T15:37:35;34.30;87.70
1996;DHT22;38556;47.068;15.408;2022-07-01T15:40:03;34.30;86.60
1996;DHT22;38556;47.068;15.408;2022-07-01T15:42:31;34.10;87.30
1996;DHT22;38556;47.068;15.408;2022-07-01T15:45:00;34.20;88.00
1996;DHT22;38556;47.068;15.408;2022-07-01T15:47:29;34.20;88.20
1996;DHT22;38556;47.068;15.408;2022-07-01T15:50:13;34.50;89.10
1996;DHT22;38556;47.068;15.408;2022-07-01T15:52:41;34.50;87.00
1996;DHT22;38556;47.068;15.408;2022-07-01T15:55:11;34.40;87.20
1996;DHT22;38556;47.068;15.408;2022-07-01T15:57:39;34.50;88.60
1996;DHT22;38556;47.068;15.408;2022-07-01T16:00:08;34.70;87.80
1996;DHT22;38556;47.068;15.408;2022-07-01T16:02:36;34.30;87.80
1996;DHT22;38556;47.068;15.408;2022-07-01T16:05:04;34.50;87.80
1996;DHT22;38556;47.068;15.408;2022-07-01T16:07:33;34.80;87.00
1996;DHT22;38556;47.068;15.408;2022-07-01T16:10:05;34.80;86.20
1996;DHT22;38556;47.068;15.408;2022-07-01T16:12:33;34.50;86.30
1996;DHT22;38556;47.068;15.408;2022-07-01T16:15:03;34.60;87.10
1996;DHT22;38556;47.068;15.408;2022-07-01T16:17:34;34.90;88.20
1996;DHT22;38556;47.068;15.408;2022-07-01T16:20:04;35.00;86.20
1996;DHT22;38556;47.068;15.408;2022-07-01T16:22:35;34.90;87.60
1996;DHT22;38556;47.068;15.408;2022-07-01T16:25:04;35.00;86.20
1996;DHT22;38556;47.068;15.408;2022-07-01T16:27:32;34.70;84.30
1996;DHT22;38556;47.068;15.408;2022-07-01T16:30:00;34.30;86.70
1996;DHT22;38556;47.068;15.408;2022-07-01T16:32:28;34.30;86.00
1996;DHT22;38556;47.068;15.408;2022-07-01T16:34:58;34.10;84.90
1996;DHT22;38556;47.068;15.408;2022-07-01T16:37:28;33.80;86.10
1996;DHT22;38556;47.068;15.408;2022-07-01T16:40:02;33.80;86.10
1996;DHT22;38556;47.068;15.408;2022-07-01T16:42:30;33.90;85.80
1996;DHT22;38556;47.068;15.408;2022-07-01T16:45:00;33.60;86.40
1996;DHT22;38556;47.068;15.408;2022-07-01T16:47:28;33.70;86.30
1996;DHT22;38556;47.068;15.408;2022-07-01T16:49:59;33.90;85.90
1996;DHT22;38556;47.068;15.408;2022-07-01T16:52:35;33.70;85.90
1996;DHT22;38556;47.068;15.408;2022-07-01T16:55:06;33.60;87.20
1996;DHT22;38556;47.068;15.408;2022-07-01T16:57:35;33.30;87.90
1996;DHT22;38556;47.068;15.408;2022-07-01T17:00:04;33.20;86.70
1996;DHT22;38556;47.068;15.408;2022-07-01T17:02:31;33.10;86.70
1996;DHT22;38556;47.068;15.408;2022-07-01T17:05:03;33.10;90.50
1996;DHT22;38556;47.068;15.408;2022-07-01T17:07:31;33.00;88.60
1996;DHT22;38556;47.068;15.408;2022-07-01T17:10:00;32.60;89.40
1996;DHT22;38556;47.068;15.408;2022-07-01T17:12:27;32.50;89.30
1996;DHT22;38556;47.068;15.408;2022-07-01T17:14:56;32.40;90.40
1996;DHT22;38556;47.068;15.408;2022-07-01T17:17:25;32.30;90.60
1996;DHT22;38556;47.068;15.408;2022-07-01T17:19:52;32.40;90.70
1996;DHT22;38556;47.068;15.408;2022-07-01T17:22:32;32.40;91.10
1996;DHT22;38556;47.068;15.408;2022-07-01T17:25:05;32.30;90.60
1996;DHT22;38556;47.068;15.408;2022-07-01T17:27:46;32.30;90.60
1996;DHT22;38556;47.068;15.408;2022-07-01T17:30:14;32.20;90.40
1996;DHT22;38556;47.068;15.408;2022-07-01T17:32:50;32.30;90.70
1996;DHT22;38556;47.068;15.408;2022-07-01T17:35:18;32.40;90.70
1996;DHT22;38556;47.068;15.408;2022-07-01T17:37:47;32.30;90.80
1996;DHT22;38556;47.068;15.408;2022-07-01T17:40:18;32.30;90.80
1996;DHT22;38556;47.068;15.408;2022-07-01T17:42:47;32.20;90.80
1996;DHT22;38556;47.068;15.408;2022-07-01T17:45:15;32.20;90.90
1996;DHT22;38556;47.068;15.408;2022-07-01T17:47:48;31.80;91.20
1996;DHT22;38556;47.068;15.408;2022-07-01T17:50:17;31.30;91.70
1996;DHT22;38556;47.068;15.408;2022-07-01T17:52:47;30.20;89.70
1996;DHT22;38556;47.068;15.408;2022-07-01T17:55:16;28.90;91.10
1996;DHT22;38556;47.068;15.408;2022-07-01T18:00:12;27.40;92.30
1996;DHT22;38556;47.068;15.408;2022-07-01T18:02:40;27.00;92.70
1996;DHT22;38556;47.068;15.408;2022-07-01T18:05:07;26.50;93.00
1996;DHT22;38556;47.068;15.408;2022-07-01T18:07:35;26.20;93.20
1996;DHT22;38556;47.068;15.408;2022-07-01T18:10:04;25.80;93.50
1996;DHT22;38556;47.068;15.408;2022-07-01T18:12:33;25.30;93.70
1996;DHT22;38556;47.068;15.408;2022-07-01T18:15:03;25.00;94.30
1996;DHT22;38556;47.068;15.408;2022-07-01T18:17:40;24.10;95.30
1996;DHT22;38556;47.068;15.408;2022-07-01T18:20:15;23.50;96.70
1996;DHT22;38556;47.068;15.408;2022-07-01T18:22:45;22.70;98.00
1996;DHT22;38556;47.068;15.408;2022-07-01T18:25:22;22.20;99.90